Main page
METAR-TAF:

METAR-TAF

Airports :

Bordeaux–Mérignac Airport

Bordeaux, France

latitude: 44-50N, longitude: 000-42W, elevation: 49 m

Current weather observation

The report was made 9 minutes ago, at 11:30 UTC
Wind 6 kt from the East/Northeast
Temperature 11°C
Humidity 58%
Pressure 1016 hPa
Visibility 10 km or more
no clouds below 1500 m and no cumulonimbus

METAR: LFBD 061130Z AUTO 06006KT CAVOK 11/03 Q1016 NOSIG

Time: 12:39 (11:39 UTC)

Forecast

The report was made 6 hours and 39 minutes ago, at 05:00 UTC
Forecast valid from 06 at 06 UTC to 07 at 12 UTC
Wind 5 kt from the East/Northeast
Visibility 10 km or more
no clouds below 1500 m and no cumulonimbus
Temporary
from 07 at 00 UTC to 07 at 09 UTC
Visibility: 4000 m
mist

TAF: LFBD 060500Z 0606/0712 06005KT CAVOK TX09/0615Z TN02/0706Z TEMPO 0700/0709 4000 BR NSC

Weather observations and forecasts of more than 4000 airports (METAR and TAF reports).

The available stations are represented by yellow and red dots on the map.

Hover mouse over dot to see the name of the station.

Then click to see weather observations and forecasts.

To change the map : click on the green buttons with a black cross to zoom in, on the green button with a dash to zoom out, or on the green arrows for adjacent maps.


METAR-TAF: